Time;durP1;ratioP1;P1;durP2;ratioP2;P2;SDS_P1;SDS_P2;PMS_P1;PMS_P2;Temp;Humidity;BMP_temperature;BMP_pressure;BME280_temperature;BME280_humidity;BME280_pressure;Samples;Min_cycle;Max_cycle;Signal;HPM_P1;HPM_P2
2022/09/23 00:00:45;;;;;;;12.47;11.17;;;6.30;99.90;;;;;;6240945;23;20522;-51
2022/09/23 00:03:12;;;;;;;12.10;10.80;;;6.30;99.90;;;;;;6240640;23;20725;-48
2022/09/23 00:05:38;;;;;;;14.10;12.60;;;6.30;99.90;;;;;;6241133;23;20367;-54
2022/09/23 00:08:08;;;;;;;14.37;12.87;;;6.30;99.90;;;;;;6241839;23;20394;-51
2022/09/23 00:10:36;;;;;;;14.00;11.77;;;6.30;99.90;;;;;;6214673;23;20396;-50
2022/09/23 00:13:04;;;;;;;13.00;11.70;;;6.20;99.90;;;;;;6241207;23;20691;-49
2022/09/23 00:15:30;;;;;;;15.27;13.67;;;6.20;99.90;;;;;;6241522;23;20879;-52
2022/09/23 00:17:55;;;;;;;14.00;12.47;;;6.20;99.90;;;;;;6241606;23;20935;-53
2022/09/23 00:20:21;;;;;;;13.63;12.23;;;6.20;99.90;;;;;;6241830;23;20374;-49
2022/09/23 00:22:47;;;;;;;14.63;12.67;;;6.20;99.90;;;;;;6240997;23;20141;-52
2022/09/23 00:25:12;;;;;;;14.37;12.83;;;6.20;99.90;;;;;;6241234;23;20723;-51
2022/09/23 00:27:38;;;;;;;13.10;11.80;;;6.10;99.90;;;;;;6241258;23;20158;-50
2022/09/23 00:30:06;;;;;;;13.50;12.10;;;6.10;99.90;;;;;;6241719;23;20136;-54
2022/09/23 00:32:32;;;;;;;14.13;12.47;;;6.10;99.90;;;;;;6241440;23;20821;-48
2022/09/23 00:34:58;;;;;;;14.73;12.27;;;6.00;99.90;;;;;;6241246;23;20465;-50
2022/09/23 00:37:24;;;;;;;13.97;12.50;;;6.00;99.90;;;;;;6241211;23;20362;-50
2022/09/23 00:39:49;;;;;;;13.83;12.33;;;5.90;99.90;;;;;;6241507;23;20202;-51
2022/09/23 00:42:19;;;;;;;13.03;11.47;;;5.90;99.90;;;;;;6241252;23;21114;-49
2022/09/23 00:44:51;;;;;;;15.03;11.70;;;5.90;99.90;;;;;;6241236;23;20470;-50
2022/09/23 00:47:23;;;;;;;12.77;11.50;;;5.80;99.90;;;;;;6240913;23;20694;-47
2022/09/23 00:50:00;;;;;;;13.50;12.15;;;5.80;99.90;;;;;;6240586;23;20369;-48
2022/09/23 00:52:27;;;;;;;14.68;12.57;;;5.80;99.90;;;;;;6241318;23;20146;-53
2022/09/23 00:54:55;;;;;;;13.30;11.90;;;5.80;99.90;;;;;;6214040;23;20733;-50
2022/09/23 00:57:22;;;;;;;13.55;12.15;;;5.80;99.90;;;;;;6240839;23;20163;-53
2022/09/23 00:59:50;;;;;;;13.35;11.75;;;5.80;99.90;;;;;;6214168;23;20149;-52
2022/09/23 01:02:17;;;;;;;12.33;11.10;;;5.80;99.90;;;;;;6213647;23;20163;-49
2022/09/23 01:04:43;;;;;;;13.43;12.00;;;5.80;99.90;;;;;;6241313;23;20366;-51
2022/09/23 01:07:08;;;;;;;14.17;12.70;;;5.80;99.90;;;;;;6240900;23;20262;-52
2022/09/23 01:09:34;;;;;;;14.07;12.53;;;5.80;99.90;;;;;;6240942;23;20473;-51
2022/09/23 01:12:31;;;;;;;12.50;10.75;;;5.80;99.90;;;;;;6241192;23;20816;-50
2022/09/23 01:15:34;;;;;;;14.90;11.95;;;5.70;99.90;;;;;;6241332;23;20179;-49
2022/09/23 01:18:11;;;;;;;14.00;11.93;;;5.70;99.90;;;;;;6240740;23;20158;-50
2022/09/23 01:20:49;;;;;;;14.27;12.45;;;5.70;99.90;;;;;;6240231;23;20134;-52
2022/09/23 01:23:43;;;;;;;13.80;12.40;;;5.60;99.90;;;;;;6240955;23;20209;-51
2022/09/23 01:26:19;;;;;;;13.52;11.77;;;5.70;99.90;;;;;;6240734;23;20206;-50
2022/09/23 01:29:18;;;;;;;13.60;12.20;;;5.60;99.90;;;;;;6240910;23;20153;-48
2022/09/23 01:32:02;;;;;;;14.60;12.00;;;5.70;99.90;;;;;;6241157;23;20138;-52
2022/09/23 01:34:42;;;;;;;13.52;12.10;;;5.60;99.90;;;;;;6241021;23;20368;-50
2022/09/23 01:37:16;;;;;;;14.23;12.63;;;5.60;99.90;;;;;;6240309;23;20165;-52
2022/09/23 01:39:50;;;;;;;14.52;11.85;;;5.60;99.90;;;;;;6241064;23;20249;-51
2022/09/23 01:42:42;;;;;;;14.60;12.90;;;5.50;99.90;;;;;;6240928;23;20623;-49
2022/09/23 01:45:18;;;;;;;13.57;11.70;;;5.50;99.90;;;;;;6240820;23;20153;-49
2022/09/23 01:47:50;;;;;;;14.07;12.65;;;5.50;99.90;;;;;;6240977;23;20556;-53
2022/09/23 01:53:11;;;;;;;16.10;13.63;;;5.40;99.90;;;;;;6240270;23;20208;-49
2022/09/23 01:55:41;;;;;;;13.25;11.88;;;5.40;99.90;;;;;;6240984;23;20308;-48
2022/09/23 01:58:18;;;;;;;14.35;12.85;;;5.40;99.90;;;;;;6240600;23;20189;-49
2022/09/23 02:01:06;;;;;;;14.05;12.38;;;5.40;99.90;;;;;;6240971;23;20138;-49
2022/09/23 02:03:44;;;;;;;15.40;12.75;;;5.40;99.90;;;;;;6240563;23;20462;-51
2022/09/23 02:06:24;;;;;;;13.77;12.25;;;5.30;99.90;;;;;;6241020;23;20142;-51
2022/09/23 02:08:56;;;;;;;14.15;12.30;;;5.40;99.90;;;;;;6240969;23;20580;-49
2022/09/23 02:11:22;;;;;;;13.80;12.32;;;5.30;99.90;;;;;;6240823;23;20580;-50
2022/09/23 02:13:48;;;;;;;14.18;12.48;;;5.30;99.90;;;;;;6240799;23;20141;-51
2022/09/23 02:16:26;;;;;;;15.20;13.03;;;5.40;99.90;;;;;;6240988;23;20235;-52
2022/09/23 02:19:05;;;;;;;14.07;12.65;;;5.30;99.90;;;;;;6242254;23;20140;-48
2022/09/23 02:21:39;;;;;;;15.85;13.43;;;5.20;99.90;;;;;;6242787;23;20145;-50
2022/09/23 02:24:18;;;;;;;15.75;13.80;;;5.30;99.90;;;;;;6242668;23;20157;-49
2022/09/23 02:27:13;;;;;;;15.73;13.23;;;5.20;99.90;;;;;;6242716;23;20141;-50
2022/09/23 02:29:48;;;;;;;18.27;13.93;;;5.20;99.90;;;;;;6242673;23;20154;-50
2022/09/23 02:32:26;;;;;;;14.40;12.65;;;5.30;99.90;;;;;;6242321;23;20153;-48
2022/09/23 02:35:16;;;;;;;15.15;13.00;;;5.20;99.90;;;;;;6242887;23;20198;-53
2022/09/23 02:38:00;;;;;;;14.45;12.90;;;5.20;99.90;;;;;;6242323;23;20529;-51
2022/09/23 02:40:37;;;;;;;15.40;12.85;;;5.20;99.90;;;;;;6242591;23;20576;-51
2022/09/23 02:43:15;;;;;;;15.57;13.23;;;5.20;99.90;;;;;;6242406;23;20143;-49
2022/09/23 02:45:41;;;;;;;15.77;13.55;;;5.20;99.90;;;;;;6242806;23;20209;-51
2022/09/23 02:48:12;;;;;;;15.07;12.87;;;5.10;99.90;;;;;;6241755;23;20561;-49
2022/09/23 02:50:38;;;;;;;15.98;13.20;;;5.10;99.90;;;;;;6242690;23;20141;-48
2022/09/23 02:53:05;;;;;;;14.52;13.02;;;5.10;99.90;;;;;;6241947;23;20162;-47
2022/09/23 02:55:31;;;;;;;17.98;14.50;;;5.10;99.90;;;;;;6242419;23;20605;-48
2022/09/23 02:58:01;;;;;;;18.00;14.17;;;5.10;99.90;;;;;;6242060;23;20141;-50
2022/09/23 03:00:35;;;;;;;16.38;13.77;;;5.10;99.90;;;;;;6241975;23;20368;-51
2022/09/23 03:03:05;;;;;;;15.93;13.98;;;5.10;99.90;;;;;;6242683;23;20141;-47
2022/09/23 03:05:36;;;;;;;16.88;13.82;;;5.10;99.90;;;;;;6242600;23;20138;-53
2022/09/23 03:08:05;;;;;;;14.88;12.98;;;5.10;99.90;;;;;;6242174;23;20149;-49
2022/09/23 03:10:56;;;;;;;15.30;13.02;;;5.10;99.90;;;;;;6242406;23;20135;-50
2022/09/23 03:13:29;;;;;;;16.33;13.68;;;5.10;99.90;;;;;;6242164;23;20200;-48
2022/09/23 03:16:09;;;;;;;15.00;12.70;;;5.00;99.90;;;;;;6242584;23;20224;-50
2022/09/23 03:18:55;;;;;;;16.25;13.80;;;5.00;99.90;;;;;;6241908;23;20192;-50
2022/09/23 03:21:27;;;;;;;17.48;13.85;;;5.00;99.90;;;;;;6242165;23;20141;-50
2022/09/23 03:23:58;;;;;;;17.67;14.02;;;5.00;99.90;;;;;;6242131;23;20161;-50
2022/09/23 03:26:28;;;;;;;17.08;14.25;;;5.00;99.90;;;;;;6242234;23;20138;-48
2022/09/23 03:28:54;;;;;;;16.60;13.20;;;5.00;99.90;;;;;;6241665;23;20666;-51
2022/09/23 03:31:19;;;;;;;15.90;13.43;;;5.00;99.90;;;;;;6242348;23;20157;-50
2022/09/23 03:33:53;;;;;;;17.87;14.13;;;5.00;99.90;;;;;;6241667;23;20251;-49
2022/09/23 03:39:17;;;;;;;19.65;14.52;;;4.90;99.90;;;;;;6241933;23;20201;-53
2022/09/23 03:41:49;;;;;;;16.38;14.00;;;5.00;99.90;;;;;;6241829;23;20181;-53
2022/09/23 03:44:16;;;;;;;17.30;14.30;;;4.90;99.90;;;;;;6241774;23;20469;-51
2022/09/23 03:46:48;;;;;;;17.80;13.77;;;4.90;99.90;;;;;;6241963;23;20221;-49
2022/09/23 03:49:17;;;;;;;16.35;14.18;;;4.80;99.90;;;;;;6240873;23;20150;-49
2022/09/23 03:51:43;;;;;;;15.38;12.73;;;4.80;99.90;;;;;;6214975;23;20157;-51
2022/09/23 03:54:08;;;;;;;18.30;13.27;;;4.80;99.90;;;;;;6241535;23;20148;-48
2022/09/23 03:56:34;;;;;;;13.77;11.93;;;4.70;99.90;;;;;;6241856;23;20197;-48
2022/09/23 03:59:00;;;;;;;15.30;12.90;;;4.70;99.90;;;;;;6241629;23;20141;-49
2022/09/23 04:01:25;;;;;;;15.17;13.20;;;4.70;99.90;;;;;;6242315;23;20644;-53
2022/09/23 04:03:52;;;;;;;14.63;13.10;;;4.70;99.90;;;;;;6241448;23;20148;-50
2022/09/23 04:06:18;;;;;;;13.50;11.98;;;4.60;99.90;;;;;;6241822;23;20222;-52
2022/09/23 04:08:44;;;;;;;16.77;13.57;;;4.60;99.90;;;;;;6241557;23;20744;-49
2022/09/23 04:11:09;;;;;;;16.00;14.30;;;4.60;99.90;;;;;;6241208;23;20138;-49
2022/09/23 04:13:35;;;;;;;15.40;13.23;;;4.60;99.90;;;;;;6214270;23;20188;-49
2022/09/23 04:16:01;;;;;;;17.10;13.63;;;4.60;99.90;;;;;;6241722;23;20420;-50
2022/09/23 04:18:26;;;;;;;16.97;13.37;;;4.70;99.90;;;;;;6240786;23;20137;-49
2022/09/23 04:20:59;;;;;;;15.83;13.47;;;4.70;99.90;;;;;;6240855;23;20159;-49
2022/09/23 04:23:26;;;;;;;16.50;14.25;;;4.70;99.90;;;;;;6241500;23;20142;-50
2022/09/23 04:25:52;;;;;;;17.50;13.90;;;4.80;99.90;;;;;;6241119;23;20185;-50
2022/09/23 04:28:18;;;;;;;15.32;13.40;;;4.80;99.90;;;;;;6240978;23;20148;-51
2022/09/23 04:30:44;;;;;;;16.93;14.47;;;4.70;99.90;;;;;;6241722;23;20508;-52
2022/09/23 04:33:11;;;;;;;17.98;14.50;;;4.80;99.90;;;;;;6242054;23;20164;-48
2022/09/23 04:35:42;;;;;;;17.95;14.57;;;4.80;99.90;;;;;;6241533;23;20177;-47
2022/09/23 04:38:09;;;;;;;17.95;14.77;;;4.80;99.90;;;;;;6241525;23;20190;-48
2022/09/23 04:40:35;;;;;;;17.33;14.20;;;4.80;99.90;;;;;;6240628;23;20797;-51
2022/09/23 04:43:00;;;;;;;16.45;14.75;;;4.70;99.90;;;;;;6213943;23;20167;-48
2022/09/23 04:45:26;;;;;;;17.50;14.53;;;4.70;99.90;;;;;;6240953;23;20216;-53
2022/09/23 04:47:52;;;;;;;18.83;16.10;;;4.70;99.90;;;;;;6241363;23;20146;-49
2022/09/23 04:50:17;;;;;;;18.10;14.77;;;4.60;99.90;;;;;;6241400;23;20179;-47
2022/09/23 04:52:43;;;;;;;16.20;14.50;;;4.60;99.90;;;;;;6241447;23;20152;-48
2022/09/23 04:55:09;;;;;;;18.13;14.07;;;4.60;99.90;;;;;;6240676;23;20169;-48
2022/09/23 04:57:35;;;;;;;17.73;14.57;;;4.60;99.90;;;;;;6241386;23;20153;-47
2022/09/23 05:00:00;;;;;;;17.93;14.50;;;4.60;99.90;;;;;;6241316;23;20356;-48
2022/09/23 05:02:27;;;;;;;18.30;14.60;;;4.50;99.90;;;;;;6240968;23;20449;-48
2022/09/23 05:04:52;;;;;;;16.38;13.90;;;4.40;99.90;;;;;;6241335;23;20546;-50
2022/09/23 05:07:18;;;;;;;16.00;13.53;;;4.40;99.90;;;;;;6241383;23;20181;-49
2022/09/23 05:09:44;;;;;;;18.43;14.50;;;4.40;99.90;;;;;;6241269;23;20859;-50
2022/09/23 05:12:10;;;;;;;15.70;13.52;;;4.40;99.90;;;;;;6241290;23;20208;-50
2022/09/23 05:14:37;;;;;;;16.27;14.10;;;4.30;99.90;;;;;;6241112;23;20588;-50
2022/09/23 05:17:04;;;;;;;16.52;14.63;;;4.30;99.90;;;;;;6239781;23;20140;-49
2022/09/23 05:19:29;;;;;;;20.33;14.27;;;4.30;99.90;;;;;;6240614;23;20142;-47
2022/09/23 05:21:55;;;;;;;17.00;15.03;;;4.40;99.90;;;;;;6241080;23;20809;-49
2022/09/23 05:24:21;;;;;;;25.20;20.10;;;4.40;99.90;;;;;;6241222;23;20465;-47
2022/09/23 05:26:47;;;;;;;20.27;15.73;;;4.40;99.90;;;;;;6240809;23;20144;-48
2022/09/23 05:29:13;;;;;;;16.60;13.97;;;4.50;99.90;;;;;;6240474;23;20252;-49
2022/09/23 05:31:38;;;;;;;15.00;12.93;;;4.50;99.90;;;;;;6241080;23;20224;-52
2022/09/23 05:34:04;;;;;;;17.97;13.87;;;4.50;99.90;;;;;;6241412;23;20146;-52
2022/09/23 05:36:32;;;;;;;18.83;14.82;;;4.70;99.90;;;;;;6241097;23;20232;-51
2022/09/23 05:38:58;;;;;;;17.75;14.00;;;4.70;99.90;;;;;;6240936;23;20492;-50
2022/09/23 05:41:25;;;;;;;19.30;14.60;;;4.80;99.90;;;;;;6241185;23;20141;-49
2022/09/23 05:43:52;;;;;;;19.55;14.88;;;4.80;99.90;;;;;;6241457;23;20142;-47
2022/09/23 05:46:23;;;;;;;19.00;16.25;;;4.90;99.90;;;;;;6240821;23;20608;-51
2022/09/23 05:48:48;;;;;;;21.08;16.40;;;5.00;99.90;;;;;;6214330;23;20158;-48
2022/09/23 05:51:19;;;;;;;19.17;16.13;;;5.00;99.90;;;;;;6240364;23;20169;-47
2022/09/23 05:53:46;;;;;;;23.75;17.60;;;5.10;99.90;;;;;;6242528;23;20181;-52
2022/09/23 05:56:14;;;;;;;22.65;17.13;;;5.10;99.90;;;;;;6243185;23;20169;-49
2022/09/23 05:58:40;;;;;;;20.67;17.25;;;5.20;99.90;;;;;;6243212;23;20151;-51
2022/09/23 06:01:14;;;;;;;20.83;17.50;;;5.30;99.90;;;;;;6242386;23;20631;-51
2022/09/23 06:03:40;;;;;;;19.20;16.25;;;5.30;99.90;;;;;;6243195;23;20390;-48
2022/09/23 06:06:06;;;;;;;21.67;16.83;;;5.20;99.90;;;;;;6242656;23;20157;-50
2022/09/23 06:08:33;;;;;;;23.23;18.55;;;5.30;99.90;;;;;;6242977;23;20503;-50
2022/09/23 06:11:06;;;;;;;23.85;20.23;;;5.40;99.90;;;;;;6242322;23;20149;-51
2022/09/23 06:13:38;;;;;;;27.98;20.50;;;5.50;99.90;;;;;;6242861;23;20151;-49
2022/09/23 06:16:08;;;;;;;20.75;17.80;;;5.50;99.90;;;;;;6242699;23;20167;-50
2022/09/23 06:18:36;;;;;;;21.80;17.75;;;5.60;99.90;;;;;;6241666;23;20147;-49
2022/09/23 06:21:03;;;;;;;25.08;21.83;;;5.70;99.90;;;;;;6242307;23;20229;-49
2022/09/23 06:23:29;;;;;;;25.58;19.98;;;5.80;99.90;;;;;;6243032;23;20145;-51
2022/09/23 06:26:00;;;;;;;25.17;20.23;;;5.80;99.90;;;;;;6242645;23;20162;-49
2022/09/23 06:28:31;;;;;;;22.25;18.75;;;6.00;99.90;;;;;;6243098;23;20240;-47
2022/09/23 06:30:58;;;;;;;27.80;18.42;;;6.10;99.90;;;;;;6242516;23;20594;-50
2022/09/23 06:33:25;;;;;;;21.30;18.13;;;6.10;99.90;;;;;;6241955;23;20158;-47
2022/09/23 06:35:58;;;;;;;21.77;17.65;;;6.20;99.90;;;;;;6242523;23;20423;-50
2022/09/23 06:38:25;;;;;;;21.57;17.40;;;6.20;99.90;;;;;;6242550;23;20197;-54
2022/09/23 06:40:53;;;;;;;21.30;17.40;;;6.30;99.90;;;;;;6242882;23;20367;-51
2022/09/23 06:43:20;;;;;;;20.87;17.10;;;6.40;99.90;;;;;;6242656;23;20401;-50
2022/09/23 06:45:46;;;;;;;20.17;16.93;;;6.50;99.90;;;;;;6242387;23;20386;-49
2022/09/23 06:48:11;;;;;;;19.10;16.60;;;6.60;99.90;;;;;;6242473;23;20385;-48
2022/09/23 06:50:37;;;;;;;20.10;17.90;;;6.70;99.90;;;;;;6242575;23;20158;-52
2022/09/23 06:53:03;;;;;;;20.87;16.87;;;6.90;99.90;;;;;;6242689;23;20500;-51
2022/09/23 06:55:29;;;;;;;20.70;16.20;;;7.00;99.90;;;;;;6240138;23;20175;-49
2022/09/23 06:57:57;;;;;;;19.30;16.20;;;7.20;99.90;;;;;;6215193;23;20416;-50
2022/09/23 07:00:23;;;;;;;20.07;16.13;;;7.30;99.90;;;;;;6242527;23;20686;-50
2022/09/23 07:02:49;;;;;;;18.53;15.70;;;7.40;99.90;;;;;;6242434;23;20356;-51
2022/09/23 07:05:16;;;;;;;18.93;16.33;;;7.60;99.90;;;;;;6242264;23;20410;-52
2022/09/23 07:07:42;;;;;;;21.03;16.00;;;7.80;99.90;;;;;;6242432;23;20481;-49
2022/09/23 07:10:09;;;;;;;20.57;16.27;;;7.80;99.90;;;;;;6242682;23;20369;-47
2022/09/23 07:12:35;;;;;;;16.67;14.90;;;7.90;99.90;;;;;;6242337;23;20676;-50
2022/09/23 07:15:00;;;;;;;19.37;16.13;;;8.10;99.90;;;;;;6242353;23;20425;-53
2022/09/23 07:17:26;;;;;;;17.60;14.87;;;8.20;99.90;;;;;;6241892;23;20149;-50
2022/09/23 07:19:53;;;;;;;17.80;14.80;;;8.30;99.90;;;;;;6215262;23;20151;-52
2022/09/23 07:22:23;;;;;;;16.87;15.07;;;8.50;99.90;;;;;;6242126;23;20933;-54
2022/09/23 07:24:49;;;;;;;15.10;13.40;;;8.60;99.90;;;;;;6241810;23;20657;-51
2022/09/23 07:27:17;;;;;;;15.50;13.80;;;8.80;99.90;;;;;;6241818;23;20422;-53
2022/09/23 07:29:43;;;;;;;12.93;11.60;;;8.90;99.90;;;;;;6242244;23;20459;-51
2022/09/23 07:32:09;;;;;;;13.33;11.93;;;9.00;99.90;;;;;;6241976;23;20375;-52
2022/09/23 07:34:35;;;;;;;12.10;10.80;;;9.10;99.90;;;;;;6242325;23;20141;-51
2022/09/23 07:37:01;;;;;;;12.10;10.37;;;9.30;99.90;;;;;;6242297;23;21230;-51
2022/09/23 07:39:27;;;;;;;11.30;9.40;;;9.50;99.90;;;;;;6241843;23;20428;-52
2022/09/23 07:41:53;;;;;;;11.23;10.03;;;9.70;99.90;;;;;;6242002;23;20371;-49
2022/09/23 07:44:20;;;;;;;10.53;9.53;;;9.80;99.90;;;;;;6242022;23;20149;-51
2022/09/23 07:46:47;;;;;;;10.60;9.57;;;10.00;99.90;;;;;;6241312;23;20584;-49
2022/09/23 07:49:13;;;;;;;12.20;9.97;;;10.20;99.90;;;;;;6242102;23;20380;-49
2022/09/23 07:51:41;;;;;;;10.50;9.40;;;10.40;99.90;;;;;;6241250;23;20365;-53
2022/09/23 07:54:11;;;;;;;9.33;8.43;;;10.50;99.90;;;;;;6239212;23;20376;-50
2022/09/23 07:56:37;;;;;;;9.37;8.37;;;10.70;99.90;;;;;;6241639;23;20423;-53
2022/09/23 07:59:07;;;;;;;10.23;8.37;;;11.00;99.90;;;;;;6241553;23;20856;-50
2022/09/23 08:01:38;;;;;;;9.77;8.77;;;11.20;80.20;;;;;;6241797;23;20368;-53
2022/09/23 08:04:11;;;;;;;8.33;7.50;;;11.40;55.20;;;;;;6241599;23;20349;-52
2022/09/23 08:06:45;;;;;;;8.87;7.97;;;11.70;48.40;;;;;;6241510;23;20388;-53
2022/09/23 08:09:12;;;;;;;12.57;8.23;;;11.90;14.70;;;;;;6241224;23;20376;-52
2022/09/23 08:11:40;;;;;;;8.93;8.03;;;12.30;5.80;;;;;;6240858;23;20356;-52
2022/09/23 08:14:12;;;;;;;8.37;7.50;;;12.60;1.00;;;;;;6241022;23;20455;-53
2022/09/23 08:16:39;;;;;;;7.67;6.80;;;13.00;1.00;;;;;;6235868;23;20493;-50
2022/09/23 08:19:05;;;;;;;8.10;7.30;;;13.40;1.00;;;;;;6231469;23;20446;-53
2022/09/23 08:21:31;;;;;;;7.20;6.50;;;13.90;1.00;;;;;;6231572;23;20703;-52
2022/09/23 08:23:57;;;;;;;7.90;7.10;;;14.50;1.00;;;;;;6232224;23;20827;-50
2022/09/23 08:26:23;;;;;;;7.10;6.40;;;14.90;99.90;;;;;;6232587;23;20364;-55
2022/09/23 08:28:52;;;;;;;6.83;6.23;;;15.70;1.00;;;;;;6232469;23;20153;-51
2022/09/23 08:31:19;;;;;;;7.30;6.63;;;16.40;1.00;;;;;;6232032;23;20386;-53
2022/09/23 08:33:45;;;;;;;7.17;6.57;;;17.00;1.00;;;;;;6232426;23;20814;-56
2022/09/23 08:36:10;;;;;;;7.20;6.67;;;17.90;1.00;;;;;;6231597;23;20409;-53
2022/09/23 08:38:36;;;;;;;6.80;6.20;;;18.60;1.00;;;;;;6232315;23;20200;-52
2022/09/23 08:41:14;;;;;;;7.47;6.87;;;19.10;99.90;;;;;;6232155;23;20142;-50
2022/09/23 08:43:58;;;;;;;6.90;6.30;;;19.40;76.50;;;;;;6229349;23;20141;-54
2022/09/23 08:46:36;;;;;;;6.57;6.07;;;20.10;1.00;;;;;;6237379;23;20879;-51
2022/09/23 08:49:04;;;;;;;7.57;6.90;;;20.40;1.00;;;;;;6238411;23;20356;-51
2022/09/23 08:51:45;;;;;;;6.90;6.40;;;21.10;1.00;;;;;;6241214;23;20356;-48
2022/09/23 08:54:12;;;;;;;6.63;6.13;;;21.50;1.00;;;;;;6240971;23;20742;-52
2022/09/23 08:56:41;;;;;;;7.50;6.90;;;21.50;1.00;;;;;;6238781;23;20454;-51
2022/09/23 08:59:19;;;;;;;7.63;7.03;;;21.40;1.00;;;;;;6238959;23;20368;-54
2022/09/23 09:01:52;;;;;;;7.40;6.80;;;22.30;1.00;;;;;;6240481;23;21124;-53
2022/09/23 09:04:26;;;;;;;7.77;7.07;;;23.00;99.90;;;;;;6241169;23;20643;-55
2022/09/23 09:06:51;;;;;;;7.83;7.23;;;23.00;99.90;;;;;;6239812;23;20356;-52
2022/09/23 09:09:31;;;;;;;6.57;6.07;;;23.60;99.90;;;;;;6240858;23;20460;-54
2022/09/23 09:12:19;;;;;;;6.50;6.10;;;24.20;99.90;;;;;;6240269;23;20495;-49
2022/09/23 09:15:01;;;;;;;6.20;5.70;;;24.20;99.90;;;;;;6228915;23;20388;-52
2022/09/23 09:17:37;;;;;;;7.50;7.00;;;24.90;99.90;;;;;;6241121;23;20375;-54
2022/09/23 09:20:17;;;;;;;6.60;6.20;;;25.40;99.90;;;;;;6240149;23;20439;-53
2022/09/23 09:22:58;;;;;;;6.47;5.97;;;26.00;99.90;;;;;;6240406;23;20348;-50
2022/09/23 09:25:44;;;;;;;7.10;6.60;;;26.10;99.90;;;;;;6241123;23;20388;-54
2022/09/23 09:28:29;;;;;;;6.30;5.90;;;26.20;99.90;;;;;;6240513;23;20702;-54
2022/09/23 09:31:22;;;;;;;6.63;6.23;;;25.90;99.90;;;;;;6240418;23;20379;-54
2022/09/23 09:33:58;;;;;;;6.20;5.80;;;26.20;99.90;;;;;;6228674;23;20837;-52
2022/09/23 09:36:43;;;;;;;6.43;5.93;;;27.00;99.90;;;;;;6240110;23;20411;-56
2022/09/23 09:39:13;;;;;;;6.80;6.30;;;26.80;99.90;;;;;;6241220;23;20466;-54
2022/09/23 09:41:59;;;;;;;7.33;5.87;;;27.30;99.90;;;;;;6240951;23;20940;-55
2022/09/23 09:44:41;;;;;;;6.80;6.33;;;27.30;99.90;;;;;;6240202;23;20403;-55
2022/09/23 09:47:37;;;;;;;6.87;6.43;;;27.70;99.90;;;;;;6240134;23;20379;-53
2022/09/23 09:50:20;;;;;;;7.13;6.73;;;27.50;99.90;;;;;;6240390;23;20448;-54
2022/09/23 09:52:55;;;;;;;6.97;6.50;;;27.60;99.90;;;;;;6227785;23;20368;-52
2022/09/23 09:55:28;;;;;;;6.70;6.30;;;27.00;99.90;;;;;;6238325;23;20443;-52
2022/09/23 09:58:03;;;;;;;6.23;5.83;;;26.30;99.90;;;;;;6238617;23;20360;-52
2022/09/23 10:00:29;;;;;;;6.43;6.03;;;25.50;99.90;;;;;;6239033;23;20834;-51
2022/09/23 10:03:00;;;;;;;6.80;6.30;;;24.80;99.90;;;;;;6238945;23;20379;-54
2022/09/23 10:05:53;;;;;;;6.57;6.07;;;24.40;99.90;;;;;;6239975;23;20381;-52
2022/09/23 10:08:35;;;;;;;6.27;5.77;;;24.00;99.90;;;;;;6237800;23;20453;-51
2022/09/23 10:11:03;;;;;;;5.83;5.43;;;23.30;99.90;;;;;;6241121;23;20488;-55
2022/09/23 10:13:29;;;;;;;5.40;4.90;;;22.80;99.90;;;;;;6213570;23;20379;-54
2022/09/23 10:16:02;;;;;;;6.20;5.80;;;22.50;99.90;;;;;;6239867;23;20420;-53
2022/09/23 10:18:34;;;;;;;6.30;5.80;;;22.40;99.90;;;;;;6240205;23;20372;-51
2022/09/23 10:21:13;;;;;;;5.70;5.30;;;22.10;99.90;;;;;;6241066;23;20364;-53
2022/09/23 10:23:44;;;;;;;5.23;4.93;;;22.20;99.90;;;;;;6240884;23;20356;-53
2022/09/23 10:26:12;;;;;;;6.20;5.80;;;22.20;99.90;;;;;;6241187;23;20381;-56
2022/09/23 10:28:57;;;;;;;5.40;4.93;;;22.10;99.90;;;;;;6238611;23;20807;-54
2022/09/23 10:31:26;;;;;;;4.80;4.50;;;22.00;99.90;;;;;;6240811;23;20823;-50
2022/09/23 10:33:59;;;;;;;5.70;5.30;;;22.10;99.90;;;;;;6240716;23;20357;-52
2022/09/23 10:36:29;;;;;;;5.00;4.70;;;22.70;99.90;;;;;;6240806;23;20412;-53
2022/09/23 10:46:37;;;;;;;5.13;4.73;;;23.10;99.90;;;;;;6240989;23;20435;-50
2022/09/23 10:48:11;;;;;;;5.30;5.00;;;26.40;99.90;;;;;;6241331;23;20367;-56
2022/09/23 10:50:43;;;;;;;5.60;5.20;;;27.30;99.90;;;;;;6241807;23;20677;-55
2022/09/23 10:53:42;;;;;;;5.03;4.73;;;28.20;99.90;;;;;;6242130;23;20364;-55
2022/09/23 10:56:38;;;;;;;5.27;4.97;;;28.40;99.90;;;;;;6234827;23;20411;-50
2022/09/23 10:59:03;;;;;;;5.20;5.00;;;27.80;99.90;;;;;;6241719;23;20418;-53
2022/09/23 11:01:32;;;;;;;4.30;4.00;;;26.90;99.90;;;;;;6242239;23;20365;-50
2022/09/23 11:04:16;;;;;;;4.60;4.40;;;26.20;99.90;;;;;;6242042;23;20431;-55
2022/09/23 11:07:06;;;;;;;5.30;4.90;;;25.40;99.90;;;;;;6242446;23;20832;-53
2022/09/23 11:09:50;;;;;;;3.80;3.60;;;24.50;99.90;;;;;;6242170;23;20452;-53
2022/09/23 11:12:24;;;;;;;4.57;4.27;;;23.80;99.90;;;;;;6242310;23;21023;-55
2022/09/23 11:15:20;;;;;;;4.20;3.90;;;23.60;99.90;;;;;;6242281;23;20439;-51
2022/09/23 11:17:58;;;;;;;4.20;4.00;;;23.00;99.90;;;;;;6242438;23;20371;-54
2022/09/23 11:21:06;;;;;;;4.57;4.27;;;23.10;99.90;;;;;;6242274;23;20353;-52
2022/09/23 11:23:39;;;;;;;4.30;4.10;;;23.20;99.90;;;;;;6242118;23;20392;-54
2022/09/23 11:26:13;;;;;;;4.57;4.37;;;23.90;99.90;;;;;;6242413;23;20418;-54
2022/09/23 11:29:08;;;;;;;4.10;3.90;;;24.90;99.90;;;;;;6241679;23;20826;-54
2022/09/23 11:31:58;;;;;;;4.10;3.90;;;25.90;99.90;;;;;;6242160;23;20367;-52
2022/09/23 11:34:52;;;;;;;4.27;4.07;;;27.00;99.90;;;;;;6242167;23;20371;-53
2022/09/23 11:37:21;;;;;;;4.60;4.40;;;27.80;99.90;;;;;;6242077;23;20368;-54
2022/09/23 11:40:00;;;;;;;3.90;3.70;;;28.60;99.90;;;;;;6241969;23;20435;-55
2022/09/23 11:42:39;;;;;;;4.33;4.03;;;28.40;99.90;;;;;;6242384;23;20418;-54
2022/09/23 11:45:18;;;;;;;4.77;4.57;;;28.90;99.90;;;;;;6242144;23;20364;-54
2022/09/23 11:47:55;;;;;;;4.77;4.57;;;29.20;99.90;;;;;;6228942;23;20457;-53
2022/09/23 11:50:33;;;;;;;4.90;4.60;;;28.70;99.90;;;;;;6241842;23;20369;-52
2022/09/23 11:53:11;;;;;;;5.70;5.40;;;27.50;99.90;;;;;;6242227;23;20360;-50
2022/09/23 11:55:47;;;;;;;5.00;4.80;;;26.60;99.90;;;;;;6241545;23;20904;-56
2022/09/23 11:58:22;;;;;;;5.50;5.10;;;26.00;99.90;;;;;;6241662;23;20360;-53
2022/09/23 12:00:57;;;;;;;5.60;5.30;;;25.00;99.90;;;;;;6241527;23;20434;-51
2022/09/23 12:03:46;;;;;;;5.80;5.40;;;24.30;99.90;;;;;;6242528;23;20372;-52
2022/09/23 12:06:37;;;;;;;5.40;5.10;;;22.90;99.90;;;;;;6241888;23;20447;-55
2022/09/23 12:09:13;;;;;;;5.50;5.10;;;22.60;99.90;;;;;;6241654;23;20811;-51
2022/09/23 12:12:13;;;;;;;5.97;5.67;;;22.20;99.90;;;;;;6241901;23;20372;-49
2022/09/23 12:15:15;;;;;;;6.60;6.20;;;22.00;99.90;;;;;;6228453;23;20423;-50
2022/09/23 12:17:56;;;;;;;6.53;6.03;;;21.70;99.90;;;;;;6241736;23;20375;-51
2022/09/23 12:20:30;;;;;;;5.60;5.30;;;21.60;99.90;;;;;;6241715;23;20853;-54
2022/09/23 12:23:26;;;;;;;6.20;5.90;;;21.50;99.90;;;;;;6241800;23;20349;-55
2022/09/23 12:26:00;;;;;;;6.60;6.10;;;21.80;99.90;;;;;;6241639;23;20352;-51
2022/09/23 12:28:32;;;;;;;6.63;6.33;;;22.40;99.90;;;;;;6241654;23;20787;-53
2022/09/23 12:31:00;;;;;;;6.90;6.50;;;23.00;99.90;;;;;;6241590;23;20360;-52
2022/09/23 12:33:29;;;;;;;5.93;5.53;;;23.70;99.90;;;;;;6241564;23;20361;-51
2022/09/23 12:36:14;;;;;;;5.73;5.43;;;24.00;99.90;;;;;;6241253;23;20450;-51
2022/09/23 12:39:00;;;;;;;5.50;5.20;;;24.00;99.90;;;;;;6240654;23;20443;-52
2022/09/23 12:41:36;;;;;;;5.30;5.00;;;24.00;99.90;;;;;;6241372;23;20403;-52
2022/09/23 12:44:13;;;;;;;5.60;5.30;;;23.60;99.90;;;;;;6241613;23;20391;-55
2022/09/23 12:47:11;;;;;;;5.23;4.93;;;23.60;99.90;;;;;;6241689;23;20372;-53
2022/09/23 12:49:36;;;;;;;5.40;5.10;;;23.30;99.90;;;;;;6241523;23;20854;-52
2022/09/23 12:52:16;;;;;;;6.00;5.60;;;23.20;99.90;;;;;;6241936;23;20422;-50
2022/09/23 12:54:44;;;;;;;5.67;5.37;;;22.80;99.90;;;;;;6241332;23;20528;-51
2022/09/23 12:57:28;;;;;;;6.00;5.70;;;22.60;99.90;;;;;;6241433;23;20378;-53
2022/09/23 12:59:56;;;;;;;5.50;5.00;;;22.40;99.90;;;;;;6241302;23;20472;-54
2022/09/23 13:02:38;;;;;;;5.30;5.00;;;22.20;99.90;;;;;;6241480;23;20460;-49
2022/09/23 13:07:54;;;;;;;6.10;5.70;;;22.00;99.90;;;;;;6241246;23;20359;-50
2022/09/23 13:10:45;;;;;;;6.20;5.77;;;21.80;99.90;;;;;;6241098;23;20368;-49
2022/09/23 13:13:25;;;;;;;6.07;5.67;;;21.70;99.90;;;;;;6240886;23;20756;-52
2022/09/23 13:15:52;;;;;;;6.43;6.13;;;21.50;99.90;;;;;;6241375;23;20412;-53
2022/09/23 13:18:17;;;;;;;6.20;5.80;;;21.40;99.90;;;;;;6241114;23;20356;-55
2022/09/23 13:20:45;;;;;;;6.90;6.40;;;21.70;99.90;;;;;;6241836;23;21271;-53
2022/09/23 13:23:27;;;;;;;6.47;6.07;;;22.10;99.90;;;;;;6241395;23;20791;-53